createdAt,value
2017-03-20T00:00:14.284Z,0
2017-03-20T00:00:46.590Z,0
2017-03-20T00:01:18.846Z,0
2017-03-20T00:01:51.094Z,0
2017-03-20T00:02:23.344Z,0
2017-03-20T00:02:55.600Z,0
2017-03-20T00:03:27.907Z,0
2017-03-20T00:04:00.172Z,0
2017-03-20T00:04:32.428Z,0
2017-03-20T00:05:05.529Z,0
2017-03-20T00:05:37.808Z,0
2017-03-20T00:06:10.977Z,0
2017-03-20T00:06:43.243Z,0
2017-03-20T00:07:15.562Z,0
2017-03-20T00:07:47.824Z,0
2017-03-20T00:08:20.096Z,0
2017-03-20T00:08:52.362Z,0
2017-03-20T00:09:24.613Z,0
2017-03-20T00:09:56.875Z,0
2017-03-20T00:10:29.142Z,0
2017-03-20T00:11:01.385Z,0
2017-03-20T00:11:33.643Z,0
2017-03-20T00:12:05.925Z,0
2017-03-20T00:12:38.257Z,0
2017-03-20T00:13:10.583Z,0
2017-03-20T00:13:42.927Z,0
2017-03-20T00:14:15.301Z,0
2017-03-20T00:14:47.626Z,0
2017-03-20T00:15:19.947Z,0
2017-03-20T00:15:52.283Z,0
2017-03-20T00:16:24.610Z,0
2017-03-20T00:16:56.961Z,0
2017-03-20T00:17:29.300Z,0
2017-03-20T00:18:01.631Z,0
2017-03-20T00:18:33.969Z,0
2017-03-20T00:19:06.304Z,0
2017-03-20T00:19:38.631Z,0
2017-03-20T00:20:10.960Z,0
2017-03-20T00:20:43.290Z,0
2017-03-20T00:21:15.608Z,0
2017-03-20T00:21:47.943Z,0
2017-03-20T00:22:20.269Z,0
2017-03-20T00:22:52.595Z,0
2017-03-20T00:23:24.921Z,0
2017-03-20T00:23:57.234Z,0
2017-03-20T00:24:29.566Z,0
2017-03-20T00:25:01.896Z,0
2017-03-20T00:25:34.246Z,0
2017-03-20T00:26:06.564Z,0
2017-03-20T00:26:38.895Z,0
2017-03-20T00:27:11.215Z,0
2017-03-20T00:27:43.541Z,0
2017-03-20T00:28:15.881Z,0
2017-03-20T00:28:48.214Z,0
2017-03-20T00:29:20.544Z,0
2017-03-20T00:29:52.884Z,0
2017-03-20T00:30:25.210Z,0
2017-03-20T00:30:57.536Z,0
2017-03-20T00:31:29.861Z,0
2017-03-20T00:32:02.189Z,0
2017-03-20T00:32:34.514Z,0
2017-03-20T00:33:06.853Z,0
2017-03-20T00:33:39.190Z,0
2017-03-20T00:34:11.519Z,0
2017-03-20T00:34:43.847Z,0
2017-03-20T00:35:16.165Z,0
2017-03-20T00:35:48.481Z,0
2017-03-20T00:36:20.848Z,0
2017-03-20T00:36:53.176Z,0
2017-03-20T00:37:25.489Z,0
2017-03-20T00:37:57.826Z,0
2017-03-20T00:38:30.151Z,0
2017-03-20T00:39:02.474Z,0
2017-03-20T00:39:34.804Z,0
2017-03-20T00:40:07.120Z,0
2017-03-20T00:40:39.449Z,0
2017-03-20T00:41:11.765Z,0
2017-03-20T00:41:44.084Z,0
2017-03-20T00:42:16.417Z,0
2017-03-20T00:42:48.739Z,0
2017-03-20T00:43:21.077Z,0
2017-03-20T00:43:53.412Z,0
2017-03-20T00:44:25.735Z,0
2017-03-20T00:44:58.054Z,0
2017-03-20T00:45:30.380Z,0
2017-03-20T00:46:02.710Z,0
2017-03-20T00:46:35.038Z,0
2017-03-20T00:47:07.358Z,0
2017-03-20T00:47:39.681Z,0
2017-03-20T00:48:12.013Z,0
2017-03-20T00:48:44.332Z,0
2017-03-20T00:49:16.668Z,0
2017-03-20T00:49:48.995Z,0
2017-03-20T00:50:21.323Z,0
2017-03-20T00:50:53.658Z,0
2017-03-20T00:51:25.989Z,0
2017-03-20T00:51:58.298Z,0
2017-03-20T00:52:30.612Z,0
2017-03-20T00:53:02.944Z,0
2017-03-20T00:53:35.277Z,0
2017-03-20T00:54:07.609Z,0
2017-03-20T00:54:39.923Z,0
2017-03-20T00:55:12.252Z,0
2017-03-20T00:55:44.591Z,0
2017-03-20T00:56:16.909Z,0
2017-03-20T00:56:49.232Z,0
2017-03-20T00:57:21.551Z,0
2017-03-20T00:57:53.883Z,0
2017-03-20T00:58:26.217Z,0
2017-03-20T00:58:58.557Z,0
2017-03-20T00:59:30.873Z,0
2017-03-20T01:00:03.199Z,0
2017-03-20T01:00:35.524Z,0
2017-03-20T01:01:07.885Z,0
2017-03-20T01:01:40.219Z,0
2017-03-20T01:02:12.506Z,0
2017-03-20T01:02:45.404Z,0
2017-03-20T01:03:17.657Z,0
2017-03-20T01:03:49.913Z,0
2017-03-20T01:04:22.972Z,0
2017-03-20T01:04:55.226Z,0
2017-03-20T01:05:28.041Z,0
2017-03-20T01:06:00.275Z,0
2017-03-20T01:06:32.551Z,0
2017-03-20T01:07:04.816Z,0
2017-03-20T01:07:37.082Z,0
2017-03-20T01:08:09.331Z,0
2017-03-20T01:08:41.629Z,0
2017-03-20T01:09:13.935Z,0
2017-03-20T01:09:46.203Z,0
2017-03-20T01:10:18.453Z,0
2017-03-20T01:10:50.715Z,0
2017-03-20T01:11:23.073Z,0
2017-03-20T01:11:55.343Z,0
2017-03-20T01:12:27.609Z,0
2017-03-20T01:12:59.866Z,0
2017-03-20T01:13:32.119Z,0
2017-03-20T01:14:04.387Z,0
2017-03-20T01:14:36.646Z,0
2017-03-20T01:15:08.931Z,0
2017-03-20T01:15:41.181Z,0
2017-03-20T01:16:13.441Z,0
2017-03-20T01:16:45.702Z,0
2017-03-20T01:17:17.964Z,0
2017-03-20T01:17:50.241Z,0
2017-03-20T01:18:22.494Z,0
2017-03-20T01:18:54.748Z,0
2017-03-20T01:19:27.018Z,0
2017-03-20T01:19:59.276Z,0
2017-03-20T01:20:31.545Z,0
2017-03-20T01:21:03.835Z,0
2017-03-20T01:21:36.072Z,0
2017-03-20T01:22:08.347Z,0
2017-03-20T01:22:40.624Z,0
2017-03-20T01:23:12.903Z,0
2017-03-20T01:23:46.046Z,0
2017-03-20T01:24:18.303Z,0
2017-03-20T01:24:51.147Z,0
2017-03-20T01:25:23.424Z,0
2017-03-20T01:25:56.557Z,0
2017-03-20T01:26:28.815Z,0
2017-03-20T01:27:01.050Z,0
2017-03-20T01:27:33.299Z,0
2017-03-20T01:28:06.507Z,0
2017-03-20T01:28:38.813Z,0
2017-03-20T01:29:11.061Z,0
2017-03-20T01:29:43.309Z,0
2017-03-20T01:30:15.579Z,0
2017-03-20T01:30:47.854Z,0
2017-03-20T01:31:20.099Z,0
2017-03-20T01:31:52.385Z,0
2017-03-20T01:32:24.709Z,0
2017-03-20T01:32:57.051Z,0
2017-03-20T01:33:29.374Z,0
2017-03-20T01:34:01.694Z,0
2017-03-20T01:34:34.028Z,0
2017-03-20T01:35:06.354Z,0
2017-03-20T01:35:38.689Z,0
2017-03-20T01:36:11.006Z,0
2017-03-20T01:36:43.317Z,0
2017-03-20T01:37:15.678Z,0
2017-03-20T01:37:47.997Z,0
2017-03-20T01:38:20.322Z,0
2017-03-20T01:38:52.659Z,0
2017-03-20T01:39:24.979Z,0
2017-03-20T01:39:57.322Z,0
2017-03-20T01:40:29.666Z,0
2017-03-20T01:41:01.990Z,0
2017-03-20T01:41:34.309Z,0
2017-03-20T01:42:06.589Z,0
2017-03-20T01:42:38.833Z,0
2017-03-20T01:43:11.101Z,0
2017-03-20T01:43:43.363Z,0
2017-03-20T01:44:15.625Z,0
2017-03-20T01:44:48.435Z,0
2017-03-20T01:45:20.682Z,0
2017-03-20T01:45:52.955Z,0
2017-03-20T01:46:25.184Z,0
2017-03-20T01:46:57.478Z,0
2017-03-20T01:47:29.745Z,0
2017-03-20T01:48:02.561Z,0
2017-03-20T01:48:34.814Z,0
2017-03-20T01:49:07.088Z,0
2017-03-20T01:49:39.485Z,0
2017-03-20T01:50:11.740Z,0
2017-03-20T01:50:44.020Z,0
2017-03-20T01:51:16.282Z,0
2017-03-20T01:51:48.542Z,0
2017-03-20T01:52:20.867Z,0
2017-03-20T01:52:53.209Z,0
2017-03-20T01:53:25.547Z,0
2017-03-20T01:53:57.886Z,0
2017-03-20T01:54:30.207Z,0
2017-03-20T01:55:02.572Z,0
2017-03-20T01:55:34.896Z,0
2017-03-20T01:56:07.211Z,0
2017-03-20T01:56:39.533Z,0
2017-03-20T01:57:11.854Z,0
2017-03-20T01:57:44.177Z,0
2017-03-20T01:58:16.518Z,0
2017-03-20T01:58:48.837Z,0
2017-03-20T01:59:21.162Z,0
2017-03-20T01:59:53.498Z,0
2017-03-20T02:00:25.823Z,0
2017-03-20T02:00:58.163Z,0
2017-03-20T02:01:30.475Z,0
2017-03-20T02:02:02.798Z,0
2017-03-20T02:02:35.052Z,0
2017-03-20T02:03:07.299Z,0
2017-03-20T02:03:39.703Z,0
2017-03-20T02:04:12.943Z,0
2017-03-20T02:04:45.179Z,0
2017-03-20T02:05:17.426Z,0
2017-03-20T02:05:50.474Z,0
2017-03-20T02:06:22.725Z,0
2017-03-20T02:06:55.927Z,0
2017-03-20T02:07:28.330Z,0
2017-03-20T02:08:01.526Z,0
2017-03-20T02:08:33.797Z,0
2017-03-20T02:09:06.035Z,0
2017-03-20T02:09:38.957Z,0
2017-03-20T02:10:11.940Z,0
2017-03-20T02:10:44.178Z,0
2017-03-20T02:11:16.422Z,0
2017-03-20T02:11:48.672Z,0
2017-03-20T02:12:20.954Z,0
2017-03-20T02:12:53.234Z,0
2017-03-20T02:13:25.504Z,0
2017-03-20T02:13:57.760Z,0
2017-03-20T02:14:30.015Z,0
2017-03-20T02:15:02.269Z,0
2017-03-20T02:15:35.130Z,0
2017-03-20T02:16:08.197Z,0
2017-03-20T02:16:40.475Z,0
2017-03-20T02:17:12.748Z,0
2017-03-20T02:17:45.005Z,0
2017-03-20T02:18:17.368Z,0
2017-03-20T02:18:49.635Z,0
2017-03-20T02:19:21.895Z,0
2017-03-20T02:19:54.154Z,0
2017-03-20T02:20:26.417Z,0
2017-03-20T02:20:58.672Z,0
2017-03-20T02:21:30.922Z,0
2017-03-20T02:22:03.165Z,0
2017-03-20T02:22:35.441Z,0
2017-03-20T02:23:07.698Z,0
2017-03-20T02:23:39.965Z,0
2017-03-20T02:24:12.220Z,0
2017-03-20T02:24:44.494Z,0
2017-03-20T02:25:16.750Z,0
2017-03-20T02:25:49.639Z,0
2017-03-20T02:26:21.897Z,0
2017-03-20T02:26:54.146Z,0
2017-03-20T02:27:26.433Z,0
2017-03-20T02:27:58.745Z,0
2017-03-20T02:28:31.000Z,0
2017-03-20T02:29:03.262Z,0
2017-03-20T02:29:36.247Z,0
2017-03-20T02:30:08.522Z,0
2017-03-20T02:30:40.766Z,0
2017-03-20T02:31:13.011Z,0
2017-03-20T02:31:46.022Z,0
2017-03-20T02:32:18.280Z,0
2017-03-20T02:32:50.546Z,0
2017-03-20T02:33:22.822Z,0
2017-03-20T02:33:55.119Z,0
2017-03-20T02:34:27.395Z,0
2017-03-20T02:34:59.681Z,0
2017-03-20T02:35:31.951Z,0
2017-03-20T02:36:04.189Z,0
2017-03-20T02:36:36.447Z,0
2017-03-20T02:37:08.719Z,0
2017-03-20T02:37:40.975Z,0
2017-03-20T02:38:13.234Z,0
2017-03-20T02:38:45.509Z,0
2017-03-20T02:39:17.774Z,0
2017-03-20T02:39:50.029Z,0
2017-03-20T02:40:22.276Z,0
2017-03-20T02:40:54.551Z,0
2017-03-20T02:41:27.448Z,0
2017-03-20T02:41:59.702Z,0
2017-03-20T02:42:31.959Z,0
2017-03-20T02:43:04.267Z,0
2017-03-20T02:43:36.642Z,0
2017-03-20T02:44:08.893Z,0
2017-03-20T02:44:41.148Z,0
2017-03-20T02:45:13.475Z,0
2017-03-20T02:45:45.711Z,0
2017-03-20T02:46:17.963Z,0
2017-03-20T02:46:50.222Z,0
2017-03-20T02:47:22.473Z,0
2017-03-20T02:47:54.748Z,0
2017-03-20T02:48:26.990Z,0
2017-03-20T02:48:59.267Z,0
2017-03-20T02:49:31.525Z,0
2017-03-20T02:50:03.782Z,0
2017-03-20T02:50:36.539Z,0
2017-03-20T02:51:08.815Z,0
2017-03-20T02:51:41.242Z,0
2017-03-20T02:52:13.493Z,0
2017-03-20T02:52:45.751Z,0
2017-03-20T02:53:18.011Z,0
2017-03-20T02:53:50.277Z,0
2017-03-20T02:54:22.516Z,0
2017-03-20T02:54:54.927Z,0
2017-03-20T02:55:27.181Z,0
2017-03-20T02:55:59.415Z,0
2017-03-20T02:56:31.699Z,0
2017-03-20T02:57:03.975Z,0
2017-03-20T02:57:37.489Z,0
2017-03-20T02:58:09.824Z,0
2017-03-20T02:58:42.122Z,0
2017-03-20T02:59:14.380Z,0
2017-03-20T02:59:46.650Z,0
2017-03-20T03:00:18.907Z,0
2017-03-20T03:00:51.173Z,0
2017-03-20T03:01:24.100Z,0
2017-03-20T03:01:56.348Z,0
2017-03-20T03:02:28.612Z,0
2017-03-20T03:03:00.878Z,0
2017-03-20T03:03:33.151Z,0
2017-03-20T03:04:05.433Z,0
2017-03-20T03:04:38.500Z,0
2017-03-20T03:05:10.803Z,0
2017-03-20T03:05:43.070Z,0
2017-03-20T03:06:15.320Z,0
2017-03-20T03:06:47.581Z,0
2017-03-20T03:07:20.535Z,0
2017-03-20T03:07:52.804Z,0
2017-03-20T03:08:25.149Z,0
2017-03-20T03:08:57.399Z,0
2017-03-20T03:09:29.646Z,0
2017-03-20T03:10:02.662Z,0
2017-03-20T03:10:34.916Z,0
2017-03-20T03:11:07.174Z,0
2017-03-20T03:11:39.478Z,0
2017-03-20T03:12:11.730Z,0
2017-03-20T03:12:44.104Z,0
2017-03-20T03:13:16.390Z,0
2017-03-20T03:13:48.785Z,0
2017-03-20T03:14:21.073Z,0
2017-03-20T03:14:53.426Z,0
2017-03-20T03:15:25.684Z,0
2017-03-20T03:15:57.972Z,0
2017-03-20T03:16:30.211Z,0
2017-03-20T03:17:02.472Z,0
2017-03-20T03:17:34.728Z,0
2017-03-20T03:18:07.086Z,0
2017-03-20T03:18:39.359Z,0
2017-03-20T03:19:12.467Z,0
2017-03-20T03:19:44.791Z,0
2017-03-20T03:20:17.044Z,0
2017-03-20T03:20:49.300Z,0
2017-03-20T03:21:21.552Z,0
2017-03-20T03:21:53.839Z,0
2017-03-20T03:22:26.164Z,0
2017-03-20T03:22:58.498Z,0
2017-03-20T03:23:30.827Z,0
2017-03-20T03:24:03.162Z,0
2017-03-20T03:24:35.490Z,0
2017-03-20T03:25:07.823Z,0
2017-03-20T03:25:40.137Z,0
2017-03-20T03:26:12.465Z,0
2017-03-20T03:26:44.793Z,0
2017-03-20T03:27:17.116Z,0
2017-03-20T03:27:49.449Z,0
2017-03-20T03:28:21.787Z,0
2017-03-20T03:28:54.109Z,0
2017-03-20T03:29:26.446Z,0
2017-03-20T03:29:58.785Z,0
2017-03-20T03:30:31.109Z,0
2017-03-20T03:31:03.422Z,0
2017-03-20T03:31:35.746Z,0
2017-03-20T03:32:08.078Z,0
2017-03-20T03:32:40.413Z,0
2017-03-20T03:33:12.746Z,0
2017-03-20T03:33:45.083Z,0
2017-03-20T03:34:17.414Z,0
2017-03-20T03:34:49.751Z,0
2017-03-20T03:35:22.075Z,0
2017-03-20T03:35:54.399Z,0
2017-03-20T03:36:26.731Z,0
2017-03-20T03:36:59.060Z,0
2017-03-20T03:37:31.395Z,0
2017-03-20T03:38:03.718Z,0
2017-03-20T03:38:36.054Z,0
2017-03-20T03:39:08.373Z,0
2017-03-20T03:39:40.706Z,0
2017-03-20T03:40:13.028Z,0
2017-03-20T03:40:45.343Z,0
2017-03-20T03:41:17.672Z,0
2017-03-20T03:41:49.985Z,0
2017-03-20T03:42:22.319Z,0
2017-03-20T03:42:54.656Z,0
2017-03-20T03:43:26.983Z,0
2017-03-20T03:43:59.320Z,0
2017-03-20T03:44:31.667Z,0
2017-03-20T03:45:04.008Z,0
2017-03-20T03:45:36.329Z,0
2017-03-20T03:46:08.649Z,0
2017-03-20T03:46:40.966Z,0
2017-03-20T03:47:13.293Z,0
2017-03-20T03:47:45.620Z,0
2017-03-20T03:48:17.958Z,0
2017-03-20T03:48:50.281Z,0
2017-03-20T03:49:22.630Z,0
2017-03-20T03:49:54.966Z,0
2017-03-20T03:50:27.282Z,0
2017-03-20T03:50:59.613Z,0
2017-03-20T03:51:31.925Z,0
2017-03-20T03:52:04.258Z,0
2017-03-20T03:52:36.598Z,0
2017-03-20T03:53:08.944Z,0
2017-03-20T03:53:41.260Z,0
2017-03-20T03:54:13.593Z,0
2017-03-20T03:54:45.919Z,0
2017-03-20T03:55:18.237Z,0
2017-03-20T03:55:50.554Z,0
2017-03-20T03:56:22.875Z,0
2017-03-20T03:56:55.193Z,0
2017-03-20T03:57:27.513Z,0
2017-03-20T03:57:59.850Z,0
2017-03-20T03:58:32.179Z,0
2017-03-20T03:59:04.505Z,0
2017-03-20T03:59:36.830Z,0
2017-03-20T04:00:09.179Z,0
2017-03-20T04:00:41.506Z,0
2017-03-20T04:01:13.832Z,0
2017-03-20T04:01:46.143Z,0
2017-03-20T04:02:19.181Z,0
2017-03-20T04:02:52.075Z,0
2017-03-20T04:03:24.327Z,0
2017-03-20T04:03:56.599Z,0
2017-03-20T04:04:28.868Z,0
2017-03-20T04:05:01.198Z,0
2017-03-20T04:05:33.452Z,0
2017-03-20T04:06:05.705Z,0
2017-03-20T04:06:37.957Z,0
2017-03-20T04:07:10.209Z,0
2017-03-20T04:07:42.453Z,0
2017-03-20T04:08:14.702Z,0
2017-03-20T04:08:47.040Z,0
2017-03-20T04:09:19.291Z,0
2017-03-20T04:09:51.535Z,0
2017-03-20T04:10:23.785Z,0
2017-03-20T04:10:56.039Z,0
2017-03-20T04:11:28.336Z,0
2017-03-20T04:12:00.622Z,0
2017-03-20T04:12:32.943Z,0
2017-03-20T04:13:05.285Z,0
2017-03-20T04:13:37.620Z,0
2017-03-20T04:14:09.961Z,0
2017-03-20T04:14:42.291Z,0
2017-03-20T04:15:14.621Z,0
2017-03-20T04:15:46.938Z,0
2017-03-20T04:16:19.265Z,0
2017-03-20T04:16:51.599Z,0
2017-03-20T04:17:23.955Z,0
2017-03-20T04:17:56.295Z,0
2017-03-20T04:18:28.638Z,0
2017-03-20T04:19:00.964Z,0
2017-03-20T04:19:33.280Z,0
2017-03-20T04:20:05.610Z,0
2017-03-20T04:20:37.930Z,0
2017-03-20T04:21:10.252Z,0
2017-03-20T04:21:42.583Z,0
2017-03-20T04:22:14.896Z,0
2017-03-20T04:22:47.230Z,0
2017-03-20T04:23:19.562Z,0
2017-03-20T04:23:51.902Z,0
2017-03-20T04:24:24.231Z,0
2017-03-20T04:24:56.560Z,0
2017-03-20T04:25:28.924Z,0
2017-03-20T04:26:01.250Z,0
2017-03-20T04:26:33.582Z,0
2017-03-20T04:27:05.904Z,0
2017-03-20T04:27:38.230Z,0
2017-03-20T04:28:10.561Z,0
2017-03-20T04:28:42.891Z,0
2017-03-20T04:29:15.227Z,0
2017-03-20T04:29:47.567Z,0
2017-03-20T04:30:19.891Z,0
2017-03-20T04:30:52.216Z,0
2017-03-20T04:31:24.537Z,0
2017-03-20T04:31:56.871Z,0
2017-03-20T04:32:29.174Z,0
2017-03-20T04:33:01.503Z,0
2017-03-20T04:33:33.829Z,0
2017-03-20T04:34:06.175Z,0
2017-03-20T04:34:38.506Z,0
2017-03-20T04:35:10.830Z,0
2017-03-20T04:35:43.162Z,0
2017-03-20T04:36:15.495Z,0
2017-03-20T04:36:47.819Z,0
2017-03-20T04:37:20.152Z,0
2017-03-20T04:37:52.479Z,0
2017-03-20T04:38:24.798Z,0
2017-03-20T04:38:57.119Z,0
2017-03-20T04:39:29.455Z,0
2017-03-20T04:40:01.806Z,0
2017-03-20T04:40:34.141Z,0
2017-03-20T04:41:06.469Z,0
2017-03-20T04:41:38.789Z,0
2017-03-20T04:42:11.073Z,0
2017-03-20T04:42:44.151Z,0
2017-03-20T04:43:16.447Z,0
2017-03-20T04:43:48.847Z,0
2017-03-20T04:44:21.122Z,0
2017-03-20T04:44:53.390Z,0
2017-03-20T04:45:25.653Z,0
2017-03-20T04:45:58.000Z,0
2017-03-20T04:46:30.230Z,0
2017-03-20T04:47:02.494Z,0
2017-03-20T04:47:34.749Z,0
2017-03-20T04:48:06.999Z,0
2017-03-20T04:48:39.229Z,0
2017-03-20T04:49:11.497Z,0
2017-03-20T04:49:43.773Z,0
2017-03-20T04:50:16.006Z,0
2017-03-20T04:50:48.991Z,0
2017-03-20T04:51:22.067Z,0
2017-03-20T04:51:54.351Z,0
2017-03-20T04:52:26.692Z,0
2017-03-20T04:52:59.009Z,0
2017-03-20T04:53:31.331Z,0
2017-03-20T04:54:03.674Z,0
2017-03-20T04:54:36.009Z,0
2017-03-20T04:55:08.330Z,0
2017-03-20T04:55:40.659Z,0
2017-03-20T04:56:12.979Z,0
2017-03-20T04:56:45.300Z,0
2017-03-20T04:57:17.617Z,0
2017-03-20T04:57:49.956Z,0
2017-03-20T04:58:22.281Z,0
2017-03-20T04:58:54.602Z,0
2017-03-20T04:59:26.937Z,0
2017-03-20T04:59:59.265Z,0
2017-03-20T05:00:31.584Z,0
2017-03-20T05:01:03.931Z,0
2017-03-20T05:01:36.256Z,0
2017-03-20T05:02:08.591Z,0
2017-03-20T05:02:40.922Z,0
2017-03-20T05:03:13.244Z,0
2017-03-20T05:03:45.616Z,0
2017-03-20T05:04:17.951Z,0
2017-03-20T05:04:50.275Z,0
2017-03-20T05:05:22.603Z,0
2017-03-20T05:05:54.938Z,0
2017-03-20T05:06:27.253Z,0
2017-03-20T05:06:59.581Z,0
2017-03-20T05:07:31.900Z,0
2017-03-20T05:08:04.222Z,0
2017-03-20T05:08:36.561Z,0
2017-03-20T05:09:08.906Z,0
2017-03-20T05:09:41.232Z,0
2017-03-20T05:10:13.572Z,0
2017-03-20T05:10:45.896Z,0
2017-03-20T05:11:18.255Z,0
2017-03-20T05:11:50.587Z,0
2017-03-20T05:12:22.910Z,0
2017-03-20T05:12:55.245Z,0
2017-03-20T05:13:27.608Z,0
2017-03-20T05:13:59.936Z,4
2017-03-20T05:14:32.301Z,4
2017-03-20T05:15:04.626Z,4
2017-03-20T05:15:36.960Z,4
2017-03-20T05:16:09.280Z,4
2017-03-20T05:16:41.618Z,0
2017-03-20T05:17:13.949Z,4
2017-03-20T05:17:46.288Z,4
2017-03-20T05:18:18.618Z,4
2017-03-20T05:18:50.942Z,4
2017-03-20T05:19:23.283Z,4
2017-03-20T05:19:55.624Z,8
2017-03-20T05:20:27.959Z,8
2017-03-20T05:21:00.295Z,4
2017-03-20T05:21:32.624Z,8
2017-03-20T05:22:04.946Z,8
2017-03-20T05:22:37.270Z,8
2017-03-20T05:23:09.601Z,8
2017-03-20T05:23:41.933Z,8
2017-03-20T05:24:14.285Z,8
2017-03-20T05:24:46.629Z,12
2017-03-20T05:25:18.960Z,12
2017-03-20T05:25:51.282Z,12
2017-03-20T05:26:23.593Z,12
2017-03-20T05:26:55.900Z,12
2017-03-20T05:27:28.225Z,8
2017-03-20T05:28:00.567Z,12
2017-03-20T05:28:32.902Z,12
2017-03-20T05:29:05.231Z,8
2017-03-20T05:29:37.565Z,12
2017-03-20T05:30:09.890Z,12
2017-03-20T05:30:42.210Z,12
2017-03-20T05:31:14.530Z,12
2017-03-20T05:31:46.844Z,12
2017-03-20T05:32:19.119Z,12
2017-03-20T05:32:51.406Z,12
2017-03-20T05:33:23.676Z,12
2017-03-20T05:33:55.934Z,12
2017-03-20T05:34:28.192Z,16
2017-03-20T05:35:00.438Z,16
2017-03-20T05:35:32.668Z,16
2017-03-20T05:36:04.919Z,20
2017-03-20T05:36:37.208Z,16
2017-03-20T05:37:09.452Z,16
2017-03-20T05:37:41.704Z,16
2017-03-20T05:38:14.581Z,20
2017-03-20T05:38:46.836Z,20
2017-03-20T05:39:19.713Z,20
2017-03-20T05:39:52.614Z,20
2017-03-20T05:40:24.868Z,24
2017-03-20T05:40:57.124Z,24
2017-03-20T05:41:29.380Z,24
2017-03-20T05:42:01.668Z,24
2017-03-20T05:42:33.995Z,28
2017-03-20T05:43:06.345Z,24
2017-03-20T05:43:38.687Z,28
2017-03-20T05:44:11.029Z,28
2017-03-20T05:44:43.355Z,28
2017-03-20T05:45:15.682Z,28
2017-03-20T05:45:48.001Z,28
2017-03-20T05:46:20.322Z,32
2017-03-20T05:46:52.660Z,36
2017-03-20T05:47:24.976Z,36
2017-03-20T05:47:57.305Z,40
2017-03-20T05:48:29.633Z,40
2017-03-20T05:49:01.957Z,40
2017-03-20T05:49:34.285Z,44
2017-03-20T05:50:06.605Z,40
2017-03-20T05:50:38.936Z,44
2017-03-20T05:51:11.261Z,48
2017-03-20T05:51:43.585Z,48
2017-03-20T05:52:15.876Z,52
2017-03-20T05:52:48.143Z,52
2017-03-20T05:53:20.407Z,52
2017-03-20T05:53:52.684Z,56
2017-03-20T05:54:24.942Z,52
2017-03-20T05:54:57.193Z,56
2017-03-20T05:55:29.467Z,56
2017-03-20T05:56:01.738Z,56
2017-03-20T05:56:33.983Z,56
2017-03-20T05:57:06.312Z,56
2017-03-20T05:57:39.108Z,52
2017-03-20T05:58:11.367Z,60
2017-03-20T05:58:43.637Z,64
2017-03-20T05:59:15.907Z,68
2017-03-20T05:59:48.168Z,68
2017-03-20T06:00:20.426Z,68
2017-03-20T06:00:52.682Z,76
2017-03-20T06:01:24.970Z,84
2017-03-20T06:01:57.257Z,84
2017-03-20T06:02:29.577Z,88
2017-03-20T06:03:01.916Z,88
2017-03-20T06:03:34.254Z,84
2017-03-20T06:04:06.593Z,84
2017-03-20T06:04:38.930Z,84
2017-03-20T06:05:11.271Z,88
2017-03-20T06:05:43.598Z,96
2017-03-20T06:06:15.923Z,108
2017-03-20T06:06:48.249Z,104
2017-03-20T06:07:20.573Z,108
2017-03-20T06:07:52.895Z,108
2017-03-20T06:08:25.230Z,112
2017-03-20T06:08:57.577Z,112
2017-03-20T06:09:29.905Z,124
2017-03-20T06:10:02.238Z,128
2017-03-20T06:10:34.555Z,136
2017-03-20T06:11:06.871Z,148
2017-03-20T06:11:39.191Z,156
2017-03-20T06:12:11.486Z,148
2017-03-20T06:12:43.748Z,148
2017-03-20T06:13:16.017Z,164
2017-03-20T06:13:48.282Z,164
2017-03-20T06:14:20.554Z,176
2017-03-20T06:14:52.800Z,180
2017-03-20T06:15:25.057Z,180
2017-03-20T06:15:57.316Z,184
2017-03-20T06:16:29.559Z,164
2017-03-20T06:17:01.803Z,172
2017-03-20T06:17:34.056Z,188
2017-03-20T06:18:06.304Z,172
2017-03-20T06:18:38.554Z,172
2017-03-20T06:19:10.862Z,192
2017-03-20T06:19:43.097Z,220
2017-03-20T06:20:15.355Z,228
2017-03-20T06:20:47.617Z,256
2017-03-20T06:21:19.883Z,284
2017-03-20T06:21:52.138Z,292
2017-03-20T06:22:24.409Z,292
2017-03-20T06:22:56.650Z,284
2017-03-20T06:23:29.736Z,292
2017-03-20T06:24:01.956Z,332
2017-03-20T06:24:34.238Z,332
2017-03-20T06:25:06.491Z,328
2017-03-20T06:25:38.740Z,324
2017-03-20T06:26:10.991Z,320
2017-03-20T06:26:44.156Z,332
2017-03-20T06:27:16.458Z,328
2017-03-20T06:27:48.704Z,320
2017-03-20T06:28:21.042Z,304
2017-03-20T06:28:53.306Z,276
2017-03-20T06:29:26.123Z,256
2017-03-20T06:29:58.447Z,236
2017-03-20T06:30:31.553Z,208
2017-03-20T06:31:03.802Z,200
2017-03-20T06:31:36.060Z,184
2017-03-20T06:32:08.431Z,172
2017-03-20T06:32:40.762Z,176
2017-03-20T06:33:13.087Z,184
2017-03-20T06:33:45.423Z,196
2017-03-20T06:34:17.758Z,208
2017-03-20T06:34:50.093Z,204
2017-03-20T06:35:22.425Z,204
2017-03-20T06:35:54.748Z,196
2017-03-20T06:36:27.063Z,204
2017-03-20T06:36:59.389Z,208
2017-03-20T06:37:31.701Z,204
2017-03-20T06:38:04.043Z,200
2017-03-20T06:38:36.372Z,192
2017-03-20T06:39:08.713Z,200
2017-03-20T06:39:41.057Z,200
2017-03-20T06:40:13.380Z,224
2017-03-20T06:40:45.698Z,200
2017-03-20T06:41:18.005Z,212
2017-03-20T06:41:50.374Z,220
2017-03-20T06:42:22.628Z,248
2017-03-20T06:42:55.684Z,288
2017-03-20T06:43:27.991Z,280
2017-03-20T06:44:00.273Z,300
2017-03-20T06:44:32.541Z,312
2017-03-20T06:45:04.812Z,304
2017-03-20T06:45:37.092Z,304
2017-03-20T06:46:10.160Z,288
2017-03-20T06:46:42.404Z,280
2017-03-20T06:47:15.739Z,264
2017-03-20T06:47:48.001Z,268
2017-03-20T06:48:20.241Z,268
2017-03-20T06:48:52.534Z,288
2017-03-20T06:49:24.779Z,276
2017-03-20T06:49:57.686Z,260
2017-03-20T06:50:29.943Z,260
2017-03-20T06:51:02.197Z,256
2017-03-20T06:51:34.444Z,244
2017-03-20T06:52:06.738Z,236
2017-03-20T06:52:39.057Z,252
2017-03-20T06:53:11.381Z,280
2017-03-20T06:53:44.709Z,316
2017-03-20T06:54:17.129Z,344
2017-03-20T06:54:52.447Z,360
2017-03-20T06:55:24.764Z,356
2017-03-20T06:55:58.015Z,356
2017-03-20T06:56:30.604Z,396
2017-03-20T06:57:03.720Z,436
2017-03-20T06:57:36.043Z,424
2017-03-20T06:58:08.366Z,472
2017-03-20T06:58:40.679Z,460
2017-03-20T06:59:13.005Z,408
2017-03-20T06:59:45.332Z,368
2017-03-20T07:00:17.647Z,336
2017-03-20T07:00:49.970Z,312
2017-03-20T07:01:22.285Z,296
2017-03-20T07:01:54.620Z,292
2017-03-20T07:02:26.942Z,296
2017-03-20T07:02:59.263Z,304
2017-03-20T07:03:31.605Z,316
2017-03-20T07:04:03.924Z,320
2017-03-20T07:04:36.272Z,328
2017-03-20T07:05:08.592Z,348
2017-03-20T07:05:40.913Z,376
2017-03-20T07:06:13.234Z,392
2017-03-20T07:06:45.596Z,428
2017-03-20T07:07:17.953Z,516
2017-03-20T07:07:50.292Z,592
2017-03-20T07:08:22.645Z,656
2017-03-20T07:08:54.983Z,692
2017-03-20T07:09:27.333Z,664
2017-03-20T07:09:59.669Z,640
2017-03-20T07:10:31.989Z,600
2017-03-20T07:11:04.325Z,612
2017-03-20T07:12:55.835Z,556
2017-03-20T07:13:28.089Z,544
2017-03-20T07:14:00.377Z,592
2017-03-20T07:14:32.620Z,616
2017-03-20T07:15:05.736Z,632
2017-03-20T07:15:39.167Z,580
2017-03-20T07:16:11.409Z,552
2017-03-20T07:16:43.697Z,520
2017-03-20T07:17:16.648Z,492
2017-03-20T07:17:49.591Z,484
2017-03-20T07:18:21.871Z,468
2017-03-20T07:18:55.201Z,480
2017-03-20T07:19:34.177Z,476
2017-03-20T07:20:09.731Z,460
2017-03-20T07:20:43.949Z,436
2017-03-20T07:21:18.770Z,440
2017-03-20T07:21:51.693Z,464
2017-03-20T07:22:25.126Z,508
2017-03-20T07:22:58.167Z,516
2017-03-20T07:23:30.444Z,480
2017-03-20T07:24:02.726Z,480
2017-03-20T07:24:36.611Z,536
2017-03-20T07:25:10.801Z,508
2017-03-20T07:25:43.614Z,540
2017-03-20T07:26:15.916Z,508
2017-03-20T07:26:48.238Z,476
2017-03-20T07:27:21.099Z,484
2017-03-20T07:27:54.213Z,464
2017-03-20T07:28:26.469Z,480
2017-03-20T07:28:58.757Z,528
2017-03-20T07:29:31.109Z,512
2017-03-20T07:30:03.391Z,464
2017-03-20T07:30:36.257Z,504
2017-03-20T07:31:08.557Z,580
2017-03-20T07:31:42.054Z,544
2017-03-20T07:32:15.425Z,516
2017-03-20T07:32:47.687Z,488
2017-03-20T07:33:20.579Z,504
2017-03-20T07:33:53.734Z,524
2017-03-20T07:34:26.637Z,560
2017-03-20T07:34:59.652Z,588
2017-03-20T07:35:33.702Z,636
2017-03-20T07:36:07.272Z,640
2017-03-20T07:36:39.522Z,676
2017-03-20T07:37:13.244Z,744
2017-03-20T07:37:46.185Z,704
2017-03-20T07:38:19.280Z,732
2017-03-20T07:38:52.663Z,708
2017-03-20T07:39:25.093Z,772
2017-03-20T07:39:58.219Z,916
2017-03-20T07:40:34.218Z,980
2017-03-20T07:41:08.663Z,1024
2017-03-20T07:41:41.837Z,1004
2017-03-20T07:42:14.319Z,944
2017-03-20T07:42:46.693Z,868
2017-03-20T07:43:19.219Z,824
2017-03-20T07:43:51.649Z,872
2017-03-20T07:44:23.980Z,952
2017-03-20T07:44:56.350Z,984
2017-03-20T07:45:28.735Z,928
2017-03-20T07:46:01.608Z,868
2017-03-20T07:46:33.943Z,824
2017-03-20T07:47:09.191Z,796
2017-03-20T07:47:41.569Z,776
2017-03-20T07:49:34.744Z,744
2017-03-20T07:50:07.853Z,676
2017-03-20T07:50:40.212Z,604
2017-03-20T07:51:13.910Z,536
2017-03-20T07:51:46.260Z,516
2017-03-20T07:52:20.821Z,492
2017-03-20T07:52:52.893Z,512